sensor_id;sensor_type;location;lat;lon;timestamp;P1;durP1;ratioP1;P2;durP2;ratioP2
67456;SDS011;54319;52.038;4.640;2023-07-29T00:02:09;6.18;;;1.50;;
67456;SDS011;54319;52.038;4.640;2023-07-29T00:04:36;3.70;;;1.60;;
67456;SDS011;54319;52.038;4.640;2023-07-29T00:07:03;3.90;;;1.50;;
67456;SDS011;54319;52.038;4.640;2023-07-29T00:09:31;2.58;;;1.55;;
67456;SDS011;54319;52.038;4.640;2023-07-29T00:11:58;5.45;;;1.70;;
67456;SDS011;54319;52.038;4.640;2023-07-29T00:14:34;4.15;;;1.55;;
67456;SDS011;54319;52.038;4.640;2023-07-29T00:17:02;4.23;;;1.70;;
67456;SDS011;54319;52.038;4.640;2023-07-29T00:19:29;2.55;;;1.33;;
67456;SDS011;54319;52.038;4.640;2023-07-29T00:21:55;6.57;;;1.40;;
67456;SDS011;54319;52.038;4.640;2023-07-29T00:24:24;3.45;;;1.30;;
67456;SDS011;54319;52.038;4.640;2023-07-29T00:26:50;2.28;;;1.23;;
67456;SDS011;54319;52.038;4.640;2023-07-29T00:29:17;4.82;;;1.60;;
67456;SDS011;54319;52.038;4.640;2023-07-29T00:31:46;2.53;;;1.35;;
67456;SDS011;54319;52.038;4.640;2023-07-29T00:34:14;4.55;;;1.60;;
67456;SDS011;54319;52.038;4.640;2023-07-29T00:36:44;4.50;;;1.60;;
67456;SDS011;54319;52.038;4.640;2023-07-29T00:39:11;4.20;;;1.60;;
67456;SDS011;54319;52.038;4.640;2023-07-29T00:41:52;3.83;;;1.40;;
67456;SDS011;54319;52.038;4.640;2023-07-29T00:44:20;4.10;;;1.70;;
67456;SDS011;54319;52.038;4.640;2023-07-29T00:46:47;3.72;;;1.67;;
67456;SDS011;54319;52.038;4.640;2023-07-29T00:49:17;3.55;;;1.48;;
67456;SDS011;54319;52.038;4.640;2023-07-29T00:51:44;5.72;;;1.60;;
67456;SDS011;54319;52.038;4.640;2023-07-29T00:54:11;6.93;;;1.90;;
67456;SDS011;54319;52.038;4.640;2023-07-29T00:56:39;4.00;;;1.80;;
67456;SDS011;54319;52.038;4.640;2023-07-29T00:59:06;6.00;;;2.17;;
67456;SDS011;54319;52.038;4.640;2023-07-29T01:01:40;4.53;;;2.00;;
67456;SDS011;54319;52.038;4.640;2023-07-29T01:04:06;4.30;;;2.17;;
67456;SDS011;54319;52.038;4.640;2023-07-29T01:06:37;3.30;;;1.95;;
67456;SDS011;54319;52.038;4.640;2023-07-29T01:09:12;6.47;;;2.05;;
67456;SDS011;54319;52.038;4.640;2023-07-29T01:11:51;5.50;;;2.03;;
67456;SDS011;54319;52.038;4.640;2023-07-29T01:14:26;6.18;;;2.00;;
67456;SDS011;54319;52.038;4.640;2023-07-29T01:17:00;6.47;;;2.10;;
67456;SDS011;54319;52.038;4.640;2023-07-29T01:19:41;6.32;;;2.40;;
67456;SDS011;54319;52.038;4.640;2023-07-29T01:22:32;6.60;;;2.03;;
67456;SDS011;54319;52.038;4.640;2023-07-29T01:25:01;8.00;;;2.20;;
67456;SDS011;54319;52.038;4.640;2023-07-29T01:27:28;6.00;;;2.58;;
67456;SDS011;54319;52.038;4.640;2023-07-29T01:29:56;3.42;;;1.80;;
67456;SDS011;54319;52.038;4.640;2023-07-29T01:32:25;4.10;;;1.85;;
67456;SDS011;54319;52.038;4.640;2023-07-29T01:35:11;5.43;;;1.80;;
67456;SDS011;54319;52.038;4.640;2023-07-29T01:37:43;3.90;;;1.90;;
67456;SDS011;54319;52.038;4.640;2023-07-29T01:40:15;5.22;;;1.75;;
67456;SDS011;54319;52.038;4.640;2023-07-29T01:42:44;2.70;;;1.88;;
67456;SDS011;54319;52.038;4.640;2023-07-29T01:45:11;5.72;;;1.73;;
67456;SDS011;54319;52.038;4.640;2023-07-29T01:47:38;6.05;;;1.67;;
67456;SDS011;54319;52.038;4.640;2023-07-29T01:50:06;4.32;;;1.52;;
67456;SDS011;54319;52.038;4.640;2023-07-29T01:52:34;7.68;;;1.67;;
67456;SDS011;54319;52.038;4.640;2023-07-29T01:55:01;3.75;;;1.60;;
67456;SDS011;54319;52.038;4.640;2023-07-29T01:57:28;2.67;;;1.60;;
67456;SDS011;54319;52.038;4.640;2023-07-29T01:59:55;3.75;;;1.90;;
67456;SDS011;54319;52.038;4.640;2023-07-29T02:02:22;3.05;;;1.58;;
67456;SDS011;54319;52.038;4.640;2023-07-29T02:04:48;2.83;;;1.80;;
67456;SDS011;54319;52.038;4.640;2023-07-29T02:07:17;2.72;;;1.67;;
67456;SDS011;54319;52.038;4.640;2023-07-29T02:09:44;2.83;;;1.50;;
67456;SDS011;54319;52.038;4.640;2023-07-29T02:12:12;3.22;;;1.50;;
67456;SDS011;54319;52.038;4.640;2023-07-29T02:14:40;4.03;;;1.90;;
67456;SDS011;54319;52.038;4.640;2023-07-29T02:17:06;3.63;;;1.90;;
67456;SDS011;54319;52.038;4.640;2023-07-29T02:19:34;3.03;;;1.90;;
67456;SDS011;54319;52.038;4.640;2023-07-29T02:22:02;4.47;;;1.92;;
67456;SDS011;54319;52.038;4.640;2023-07-29T02:24:29;3.95;;;1.98;;
67456;SDS011;54319;52.038;4.640;2023-07-29T02:26:55;4.90;;;2.05;;
67456;SDS011;54319;52.038;4.640;2023-07-29T02:29:28;3.25;;;2.10;;
67456;SDS011;54319;52.038;4.640;2023-07-29T02:31:57;3.85;;;2.00;;
67456;SDS011;54319;52.038;4.640;2023-07-29T02:34:23;3.88;;;1.80;;
67456;SDS011;54319;52.038;4.640;2023-07-29T02:36:50;1.92;;;1.63;;
67456;SDS011;54319;52.038;4.640;2023-07-29T02:39:17;3.42;;;1.92;;
67456;SDS011;54319;52.038;4.640;2023-07-29T02:41:43;4.40;;;2.20;;
67456;SDS011;54319;52.038;4.640;2023-07-29T02:44:10;4.32;;;2.00;;
67456;SDS011;54319;52.038;4.640;2023-07-29T02:46:37;2.10;;;1.65;;
67456;SDS011;54319;52.038;4.640;2023-07-29T02:49:21;4.15;;;1.77;;
67456;SDS011;54319;52.038;4.640;2023-07-29T02:51:48;3.95;;;1.77;;
67456;SDS011;54319;52.038;4.640;2023-07-29T02:54:15;3.15;;;1.70;;
67456;SDS011;54319;52.038;4.640;2023-07-29T02:56:42;5.32;;;1.90;;
67456;SDS011;54319;52.038;4.640;2023-07-29T02:59:21;2.15;;;1.70;;
67456;SDS011;54319;52.038;4.640;2023-07-29T03:01:51;4.05;;;2.15;;
67456;SDS011;54319;52.038;4.640;2023-07-29T03:04:19;3.70;;;2.08;;
67456;SDS011;54319;52.038;4.640;2023-07-29T03:06:55;2.13;;;1.67;;
67456;SDS011;54319;52.038;4.640;2023-07-29T03:09:26;3.17;;;1.70;;
67456;SDS011;54319;52.038;4.640;2023-07-29T03:11:53;3.38;;;1.85;;
67456;SDS011;54319;52.038;4.640;2023-07-29T03:14:21;4.65;;;2.10;;
67456;SDS011;54319;52.038;4.640;2023-07-29T03:16:48;3.38;;;1.90;;
67456;SDS011;54319;52.038;4.640;2023-07-29T03:19:14;3.55;;;2.10;;
67456;SDS011;54319;52.038;4.640;2023-07-29T03:21:42;4.20;;;2.15;;
67456;SDS011;54319;52.038;4.640;2023-07-29T03:24:09;2.00;;;1.80;;
67456;SDS011;54319;52.038;4.640;2023-07-29T03:26:36;5.10;;;1.98;;
67456;SDS011;54319;52.038;4.640;2023-07-29T03:29:02;6.25;;;2.20;;
67456;SDS011;54319;52.038;4.640;2023-07-29T03:31:29;4.53;;;2.28;;
67456;SDS011;54319;52.038;4.640;2023-07-29T03:33:56;3.90;;;2.22;;
67456;SDS011;54319;52.038;4.640;2023-07-29T03:36:22;3.72;;;2.17;;
67456;SDS011;54319;52.038;4.640;2023-07-29T03:38:52;5.55;;;2.10;;
67456;SDS011;54319;52.038;4.640;2023-07-29T03:41:21;2.83;;;1.80;;
67456;SDS011;54319;52.038;4.640;2023-07-29T03:43:47;5.60;;;2.03;;
67456;SDS011;54319;52.038;4.640;2023-07-29T03:46:14;2.80;;;1.90;;
67456;SDS011;54319;52.038;4.640;2023-07-29T03:48:44;3.63;;;1.83;;
67456;SDS011;54319;52.038;4.640;2023-07-29T03:51:11;3.10;;;1.90;;
67456;SDS011;54319;52.038;4.640;2023-07-29T03:53:37;5.07;;;2.20;;
67456;SDS011;54319;52.038;4.640;2023-07-29T03:56:05;5.60;;;1.98;;
67456;SDS011;54319;52.038;4.640;2023-07-29T03:58:33;5.20;;;2.10;;
67456;SDS011;54319;52.038;4.640;2023-07-29T04:00:59;4.55;;;2.22;;
67456;SDS011;54319;52.038;4.640;2023-07-29T04:03:36;7.57;;;2.80;;
67456;SDS011;54319;52.038;4.640;2023-07-29T04:06:03;3.78;;;2.08;;
67456;SDS011;54319;52.038;4.640;2023-07-29T04:08:30;5.25;;;2.50;;
67456;SDS011;54319;52.038;4.640;2023-07-29T04:10:56;4.80;;;2.05;;
67456;SDS011;54319;52.038;4.640;2023-07-29T04:13:24;7.72;;;2.60;;
67456;SDS011;54319;52.038;4.640;2023-07-29T04:15:51;5.10;;;2.42;;
67456;SDS011;54319;52.038;4.640;2023-07-29T04:18:18;5.85;;;2.78;;
67456;SDS011;54319;52.038;4.640;2023-07-29T04:20:44;4.90;;;2.30;;
67456;SDS011;54319;52.038;4.640;2023-07-29T04:23:11;4.68;;;2.70;;
67456;SDS011;54319;52.038;4.640;2023-07-29T04:25:38;4.80;;;2.60;;
67456;SDS011;54319;52.038;4.640;2023-07-29T04:28:04;7.43;;;2.65;;
67456;SDS011;54319;52.038;4.640;2023-07-29T04:30:34;3.58;;;2.50;;
67456;SDS011;54319;52.038;4.640;2023-07-29T04:33:01;6.60;;;2.63;;
67456;SDS011;54319;52.038;4.640;2023-07-29T04:35:28;6.35;;;3.00;;
67456;SDS011;54319;52.038;4.640;2023-07-29T04:37:54;5.50;;;2.67;;
67456;SDS011;54319;52.038;4.640;2023-07-29T04:40:21;6.22;;;2.50;;
67456;SDS011;54319;52.038;4.640;2023-07-29T04:42:48;5.07;;;2.75;;
67456;SDS011;54319;52.038;4.640;2023-07-29T04:45:15;5.30;;;2.67;;
67456;SDS011;54319;52.038;4.640;2023-07-29T04:47:56;5.00;;;2.33;;
67456;SDS011;54319;52.038;4.640;2023-07-29T04:50:23;7.30;;;2.83;;
67456;SDS011;54319;52.038;4.640;2023-07-29T04:52:50;8.88;;;2.78;;
67456;SDS011;54319;52.038;4.640;2023-07-29T04:55:18;4.05;;;2.65;;
67456;SDS011;54319;52.038;4.640;2023-07-29T04:57:51;5.70;;;2.60;;
67456;SDS011;54319;52.038;4.640;2023-07-29T05:00:17;4.47;;;3.13;;
67456;SDS011;54319;52.038;4.640;2023-07-29T05:02:44;4.75;;;3.13;;
67456;SDS011;54319;52.038;4.640;2023-07-29T05:05:12;7.82;;;3.28;;
67456;SDS011;54319;52.038;4.640;2023-07-29T05:07:39;6.22;;;2.92;;
67456;SDS011;54319;52.038;4.640;2023-07-29T05:10:06;7.03;;;3.15;;
67456;SDS011;54319;52.038;4.640;2023-07-29T05:12:33;6.78;;;3.13;;
67456;SDS011;54319;52.038;4.640;2023-07-29T05:15:00;6.57;;;3.10;;
67456;SDS011;54319;52.038;4.640;2023-07-29T05:19:54;4.63;;;2.63;;
67456;SDS011;54319;52.038;4.640;2023-07-29T05:22:22;6.05;;;2.70;;
67456;SDS011;54319;52.038;4.640;2023-07-29T05:24:50;6.22;;;2.83;;
67456;SDS011;54319;52.038;4.640;2023-07-29T05:27:16;4.45;;;2.90;;
67456;SDS011;54319;52.038;4.640;2023-07-29T05:29:43;4.95;;;2.90;;
67456;SDS011;54319;52.038;4.640;2023-07-29T05:32:10;6.95;;;2.95;;
67456;SDS011;54319;52.038;4.640;2023-07-29T05:34:36;4.88;;;2.72;;
67456;SDS011;54319;52.038;4.640;2023-07-29T05:37:17;7.15;;;3.00;;
67456;SDS011;54319;52.038;4.640;2023-07-29T05:39:48;6.68;;;3.20;;
67456;SDS011;54319;52.038;4.640;2023-07-29T05:42:15;6.50;;;3.33;;
67456;SDS011;54319;52.038;4.640;2023-07-29T05:44:42;7.47;;;3.15;;
67456;SDS011;54319;52.038;4.640;2023-07-29T05:47:09;7.97;;;3.47;;
67456;SDS011;54319;52.038;4.640;2023-07-29T05:49:35;7.60;;;3.30;;
67456;SDS011;54319;52.038;4.640;2023-07-29T05:52:02;5.68;;;2.58;;
67456;SDS011;54319;52.038;4.640;2023-07-29T05:54:29;6.18;;;3.17;;
67456;SDS011;54319;52.038;4.640;2023-07-29T05:56:57;4.68;;;3.08;;
67456;SDS011;54319;52.038;4.640;2023-07-29T05:59:24;7.47;;;3.08;;
67456;SDS011;54319;52.038;4.640;2023-07-29T06:01:50;7.20;;;3.05;;
67456;SDS011;54319;52.038;4.640;2023-07-29T06:04:17;4.57;;;2.70;;
67456;SDS011;54319;52.038;4.640;2023-07-29T06:06:43;6.85;;;2.75;;
67456;SDS011;54319;52.038;4.640;2023-07-29T06:09:10;8.07;;;2.88;;
67456;SDS011;54319;52.038;4.640;2023-07-29T06:11:37;6.70;;;2.88;;
67456;SDS011;54319;52.038;4.640;2023-07-29T06:14:05;6.55;;;2.88;;
67456;SDS011;54319;52.038;4.640;2023-07-29T06:16:34;5.45;;;3.25;;
67456;SDS011;54319;52.038;4.640;2023-07-29T06:19:01;7.65;;;2.85;;
67456;SDS011;54319;52.038;4.640;2023-07-29T06:21:27;4.00;;;2.60;;
67456;SDS011;54319;52.038;4.640;2023-07-29T06:23:54;8.00;;;2.50;;
67456;SDS011;54319;52.038;4.640;2023-07-29T06:26:20;9.10;;;2.53;;
67456;SDS011;54319;52.038;4.640;2023-07-29T06:28:47;5.97;;;2.70;;
67456;SDS011;54319;52.038;4.640;2023-07-29T06:31:15;5.65;;;2.90;;
67456;SDS011;54319;52.038;4.640;2023-07-29T06:33:42;7.18;;;2.80;;
67456;SDS011;54319;52.038;4.640;2023-07-29T06:36:08;5.65;;;2.58;;
67456;SDS011;54319;52.038;4.640;2023-07-29T06:38:35;6.72;;;2.95;;
67456;SDS011;54319;52.038;4.640;2023-07-29T06:41:02;5.22;;;2.70;;
67456;SDS011;54319;52.038;4.640;2023-07-29T06:43:28;7.30;;;2.97;;
67456;SDS011;54319;52.038;4.640;2023-07-29T06:45:57;6.70;;;2.55;;
67456;SDS011;54319;52.038;4.640;2023-07-29T06:48:26;5.40;;;2.70;;
67456;SDS011;54319;52.038;4.640;2023-07-29T06:50:53;3.50;;;2.10;;
67456;SDS011;54319;52.038;4.640;2023-07-29T06:53:25;8.38;;;2.70;;
67456;SDS011;54319;52.038;4.640;2023-07-29T06:55:52;4.75;;;2.40;;
67456;SDS011;54319;52.038;4.640;2023-07-29T06:58:19;7.75;;;2.40;;
67456;SDS011;54319;52.038;4.640;2023-07-29T07:00:45;3.45;;;2.22;;
67456;SDS011;54319;52.038;4.640;2023-07-29T07:03:12;4.20;;;2.28;;
67456;SDS011;54319;52.038;4.640;2023-07-29T07:05:40;8.15;;;2.08;;
67456;SDS011;54319;52.038;4.640;2023-07-29T07:08:06;3.85;;;1.75;;
67456;SDS011;54319;52.038;4.640;2023-07-29T07:10:33;4.55;;;2.15;;
67456;SDS011;54319;52.038;4.640;2023-07-29T07:13:00;4.55;;;1.70;;
67456;SDS011;54319;52.038;4.640;2023-07-29T07:15:27;3.45;;;1.60;;
67456;SDS011;54319;52.038;4.640;2023-07-29T07:17:53;6.60;;;2.50;;
67456;SDS011;54319;52.038;4.640;2023-07-29T07:20:20;4.80;;;2.17;;
67456;SDS011;54319;52.038;4.640;2023-07-29T07:22:48;4.32;;;2.08;;
67456;SDS011;54319;52.038;4.640;2023-07-29T07:25:15;6.72;;;2.00;;
67456;SDS011;54319;52.038;4.640;2023-07-29T07:27:41;3.42;;;1.70;;
67456;SDS011;54319;52.038;4.640;2023-07-29T07:30:08;3.47;;;1.35;;
67456;SDS011;54319;52.038;4.640;2023-07-29T07:32:43;4.88;;;1.55;;
67456;SDS011;54319;52.038;4.640;2023-07-29T07:35:10;2.55;;;1.30;;
67456;SDS011;54319;52.038;4.640;2023-07-29T07:37:36;6.10;;;1.65;;
67456;SDS011;54319;52.038;4.640;2023-07-29T07:40:05;4.75;;;1.70;;
67456;SDS011;54319;52.038;4.640;2023-07-29T07:42:32;4.75;;;1.73;;
67456;SDS011;54319;52.038;4.640;2023-07-29T07:44:59;6.20;;;2.53;;
67456;SDS011;54319;52.038;4.640;2023-07-29T07:47:26;2.97;;;1.25;;
67456;SDS011;54319;52.038;4.640;2023-07-29T07:49:53;4.15;;;1.25;;
67456;SDS011;54319;52.038;4.640;2023-07-29T07:52:20;5.82;;;1.65;;
67456;SDS011;54319;52.038;4.640;2023-07-29T07:54:51;4.15;;;1.50;;
67456;SDS011;54319;52.038;4.640;2023-07-29T07:57:19;3.70;;;1.40;;
67456;SDS011;54319;52.038;4.640;2023-07-29T07:59:46;3.60;;;1.63;;
67456;SDS011;54319;52.038;4.640;2023-07-29T08:02:12;3.10;;;1.20;;
67456;SDS011;54319;52.038;4.640;2023-07-29T08:04:39;3.55;;;1.27;;
67456;SDS011;54319;52.038;4.640;2023-07-29T08:07:06;3.35;;;1.30;;
67456;SDS011;54319;52.038;4.640;2023-07-29T08:09:32;4.03;;;1.50;;
67456;SDS011;54319;52.038;4.640;2023-07-29T08:11:59;3.88;;;1.45;;
67456;SDS011;54319;52.038;4.640;2023-07-29T08:16:54;5.93;;;1.40;;
67456;SDS011;54319;52.038;4.640;2023-07-29T08:19:20;2.63;;;1.27;;
67456;SDS011;54319;52.038;4.640;2023-07-29T08:21:47;2.33;;;1.20;;
67456;SDS011;54319;52.038;4.640;2023-07-29T08:24:14;4.57;;;1.40;;
67456;SDS011;54319;52.038;4.640;2023-07-29T08:26:40;1.98;;;1.20;;
67456;SDS011;54319;52.038;4.640;2023-07-29T08:29:07;4.30;;;1.55;;
67456;SDS011;54319;52.038;4.640;2023-07-29T08:31:35;2.33;;;1.30;;
67456;SDS011;54319;52.038;4.640;2023-07-29T08:34:01;2.60;;;1.30;;
67456;SDS011;54319;52.038;4.640;2023-07-29T08:36:28;4.45;;;1.35;;
67456;SDS011;54319;52.038;4.640;2023-07-29T08:38:55;4.07;;;1.50;;
67456;SDS011;54319;52.038;4.640;2023-07-29T08:41:25;4.00;;;1.52;;
67456;SDS011;54319;52.038;4.640;2023-07-29T08:43:56;2.92;;;1.20;;
67456;SDS011;54319;52.038;4.640;2023-07-29T08:46:28;5.00;;;1.60;;
67456;SDS011;54319;52.038;4.640;2023-07-29T08:48:56;1.65;;;1.40;;
67456;SDS011;54319;52.038;4.640;2023-07-29T08:51:26;3.60;;;1.45;;
67456;SDS011;54319;52.038;4.640;2023-07-29T08:56:20;4.50;;;1.30;;
67456;SDS011;54319;52.038;4.640;2023-07-29T08:58:47;6.95;;;1.77;;
67456;SDS011;54319;52.038;4.640;2023-07-29T09:01:14;5.65;;;1.70;;
67456;SDS011;54319;52.038;4.640;2023-07-29T09:03:42;3.42;;;1.50;;
67456;SDS011;54319;52.038;4.640;2023-07-29T09:06:10;2.38;;;1.70;;
67456;SDS011;54319;52.038;4.640;2023-07-29T09:08:38;4.97;;;2.00;;
67456;SDS011;54319;52.038;4.640;2023-07-29T09:11:04;3.95;;;2.10;;
67456;SDS011;54319;52.038;4.640;2023-07-29T09:13:32;3.58;;;1.80;;
67456;SDS011;54319;52.038;4.640;2023-07-29T09:15:59;4.45;;;1.95;;
67456;SDS011;54319;52.038;4.640;2023-07-29T09:18:26;3.92;;;2.08;;
67456;SDS011;54319;52.038;4.640;2023-07-29T09:20:53;4.85;;;2.30;;
67456;SDS011;54319;52.038;4.640;2023-07-29T09:23:27;5.53;;;2.47;;
67456;SDS011;54319;52.038;4.640;2023-07-29T09:26:00;3.88;;;2.25;;
67456;SDS011;54319;52.038;4.640;2023-07-29T09:28:27;6.88;;;2.22;;
67456;SDS011;54319;52.038;4.640;2023-07-29T09:30:59;3.10;;;2.25;;
67456;SDS011;54319;52.038;4.640;2023-07-29T09:33:26;4.75;;;2.67;;
67456;SDS011;54319;52.038;4.640;2023-07-29T09:35:53;5.07;;;2.50;;
67456;SDS011;54319;52.038;4.640;2023-07-29T09:38:25;4.13;;;2.70;;
67456;SDS011;54319;52.038;4.640;2023-07-29T09:40:55;2.83;;;2.40;;
67456;SDS011;54319;52.038;4.640;2023-07-29T09:43:25;4.53;;;2.70;;
67456;SDS011;54319;52.038;4.640;2023-07-29T09:45:56;4.10;;;2.15;;
67456;SDS011;54319;52.038;4.640;2023-07-29T09:48:26;3.10;;;2.22;;
67456;SDS011;54319;52.038;4.640;2023-07-29T09:50:53;3.90;;;2.25;;
67456;SDS011;54319;52.038;4.640;2023-07-29T09:53:20;4.72;;;2.17;;
67456;SDS011;54319;52.038;4.640;2023-07-29T09:55:50;2.95;;;1.92;;
67456;SDS011;54319;52.038;4.640;2023-07-29T09:58:19;4.15;;;1.80;;
67456;SDS011;54319;52.038;4.640;2023-07-29T10:00:52;2.40;;;1.83;;
67456;SDS011;54319;52.038;4.640;2023-07-29T10:03:29;7.05;;;2.00;;
67456;SDS011;54319;52.038;4.640;2023-07-29T10:06:05;3.53;;;1.50;;
67456;SDS011;54319;52.038;4.640;2023-07-29T10:08:33;2.40;;;1.60;;
67456;SDS011;54319;52.038;4.640;2023-07-29T10:11:04;2.83;;;1.80;;
67456;SDS011;54319;52.038;4.640;2023-07-29T10:13:31;2.85;;;1.70;;
67456;SDS011;54319;52.038;4.640;2023-07-29T10:15:58;3.15;;;2.10;;
67456;SDS011;54319;52.038;4.640;2023-07-29T10:18:27;1.83;;;1.35;;
67456;SDS011;54319;52.038;4.640;2023-07-29T10:20:56;3.13;;;1.70;;
67456;SDS011;54319;52.038;4.640;2023-07-29T10:23:22;4.63;;;1.73;;
67456;SDS011;54319;52.038;4.640;2023-07-29T10:25:53;2.95;;;1.63;;
67456;SDS011;54319;52.038;4.640;2023-07-29T10:28:25;3.33;;;1.75;;
67456;SDS011;54319;52.038;4.640;2023-07-29T10:30:54;2.13;;;1.80;;
67456;SDS011;54319;52.038;4.640;2023-07-29T10:33:22;4.70;;;1.88;;
67456;SDS011;54319;52.038;4.640;2023-07-29T10:35:49;5.40;;;2.00;;
67456;SDS011;54319;52.038;4.640;2023-07-29T10:38:16;1.67;;;1.38;;
67456;SDS011;54319;52.038;4.640;2023-07-29T10:40:44;3.03;;;1.10;;
67456;SDS011;54319;52.038;4.640;2023-07-29T10:43:11;5.13;;;1.20;;
67456;SDS011;54319;52.038;4.640;2023-07-29T10:45:45;2.80;;;0.77;;
67456;SDS011;54319;52.038;4.640;2023-07-29T10:48:13;3.47;;;1.10;;
67456;SDS011;54319;52.038;4.640;2023-07-29T10:53:54;2.40;;;1.00;;
67456;SDS011;54319;52.038;4.640;2023-07-29T10:56:26;2.03;;;1.10;;
67456;SDS011;54319;52.038;4.640;2023-07-29T10:58:55;3.47;;;1.00;;
67456;SDS011;54319;52.038;4.640;2023-07-29T11:01:27;1.23;;;0.85;;
67456;SDS011;54319;52.038;4.640;2023-07-29T11:09:55;2.25;;;1.27;;
67456;SDS011;54319;52.038;4.640;2023-07-29T11:12:36;3.13;;;1.45;;
67456;SDS011;54319;52.038;4.640;2023-07-29T11:15:04;3.10;;;1.30;;
67456;SDS011;54319;52.038;4.640;2023-07-29T11:17:40;3.00;;;1.35;;
67456;SDS011;54319;52.038;4.640;2023-07-29T11:20:08;2.63;;;1.40;;
67456;SDS011;54319;52.038;4.640;2023-07-29T11:22:37;3.05;;;1.50;;
67456;SDS011;54319;52.038;4.640;2023-07-29T11:25:04;4.00;;;1.60;;
67456;SDS011;54319;52.038;4.640;2023-07-29T11:27:34;3.80;;;1.60;;
67456;SDS011;54319;52.038;4.640;2023-07-29T11:30:01;3.05;;;1.50;;
67456;SDS011;54319;52.038;4.640;2023-07-29T11:32:30;3.22;;;1.50;;
67456;SDS011;54319;52.038;4.640;2023-07-29T11:35:00;2.25;;;1.80;;
67456;SDS011;54319;52.038;4.640;2023-07-29T11:37:28;2.10;;;1.45;;
67456;SDS011;54319;52.038;4.640;2023-07-29T11:39:55;1.85;;;1.67;;
67456;SDS011;54319;52.038;4.640;2023-07-29T11:42:23;2.67;;;1.88;;
67456;SDS011;54319;52.038;4.640;2023-07-29T11:49:43;3.10;;;1.63;;
67456;SDS011;54319;52.038;4.640;2023-07-29T11:52:11;2.75;;;1.70;;
67456;SDS011;54319;52.038;4.640;2023-07-29T11:54:38;2.65;;;1.70;;
67456;SDS011;54319;52.038;4.640;2023-07-29T11:57:06;3.47;;;1.85;;
67456;SDS011;54319;52.038;4.640;2023-07-29T11:59:33;2.00;;;1.88;;
67456;SDS011;54319;52.038;4.640;2023-07-29T12:02:01;4.28;;;2.10;;
67456;SDS011;54319;52.038;4.640;2023-07-29T12:04:28;3.55;;;1.95;;
67456;SDS011;54319;52.038;4.640;2023-07-29T12:06:58;3.58;;;1.90;;
67456;SDS011;54319;52.038;4.640;2023-07-29T12:09:27;2.08;;;1.80;;
67456;SDS011;54319;52.038;4.640;2023-07-29T12:11:54;2.47;;;1.73;;
67456;SDS011;54319;52.038;4.640;2023-07-29T12:16:48;3.13;;;1.70;;
67456;SDS011;54319;52.038;4.640;2023-07-29T12:19:17;2.28;;;1.63;;
67456;SDS011;54319;52.038;4.640;2023-07-29T12:21:44;1.77;;;1.60;;
67456;SDS011;54319;52.038;4.640;2023-07-29T12:26:39;2.47;;;1.80;;
67456;SDS011;54319;52.038;4.640;2023-07-29T12:29:12;3.65;;;1.70;;
67456;SDS011;54319;52.038;4.640;2023-07-29T12:31:39;2.78;;;1.60;;
67456;SDS011;54319;52.038;4.640;2023-07-29T12:34:06;2.53;;;1.58;;
67456;SDS011;54319;52.038;4.640;2023-07-29T12:36:45;4.43;;;1.58;;
67456;SDS011;54319;52.038;4.640;2023-07-29T12:39:25;2.92;;;1.40;;
67456;SDS011;54319;52.038;4.640;2023-07-29T12:41:55;2.28;;;1.30;;
67456;SDS011;54319;52.038;4.640;2023-07-29T12:44:23;2.65;;;1.40;;
67456;SDS011;54319;52.038;4.640;2023-07-29T12:46:56;3.10;;;1.40;;
67456;SDS011;54319;52.038;4.640;2023-07-29T12:49:23;2.10;;;1.35;;
67456;SDS011;54319;52.038;4.640;2023-07-29T12:51:50;4.30;;;1.40;;
67456;SDS011;54319;52.038;4.640;2023-07-29T12:54:16;4.55;;;1.55;;
67456;SDS011;54319;52.038;4.640;2023-07-29T12:56:43;1.73;;;1.20;;
67456;SDS011;54319;52.038;4.640;2023-07-29T12:59:11;2.78;;;1.30;;
67456;SDS011;54319;52.038;4.640;2023-07-29T13:01:38;3.70;;;1.40;;
67456;SDS011;54319;52.038;4.640;2023-07-29T13:04:04;2.58;;;1.00;;
67456;SDS011;54319;52.038;4.640;2023-07-29T13:06:31;2.15;;;1.00;;
67456;SDS011;54319;52.038;4.640;2023-07-29T13:08:57;1.38;;;1.10;;
67456;SDS011;54319;52.038;4.640;2023-07-29T13:11:24;2.50;;;1.50;;
67456;SDS011;54319;52.038;4.640;2023-07-29T13:13:57;3.13;;;1.40;;
67456;SDS011;54319;52.038;4.640;2023-07-29T13:16:35;2.42;;;1.25;;
67456;SDS011;54319;52.038;4.640;2023-07-29T13:19:02;2.95;;;1.30;;
67456;SDS011;54319;52.038;4.640;2023-07-29T13:21:28;3.20;;;1.27;;
67456;SDS011;54319;52.038;4.640;2023-07-29T13:23:55;3.40;;;1.25;;
67456;SDS011;54319;52.038;4.640;2023-07-29T13:26:21;2.25;;;1.35;;
67456;SDS011;54319;52.038;4.640;2023-07-29T13:28:48;3.65;;;1.25;;
67456;SDS011;54319;52.038;4.640;2023-07-29T13:31:15;3.97;;;1.30;;
67456;SDS011;54319;52.038;4.640;2023-07-29T13:33:43;4.18;;;1.10;;
67456;SDS011;54319;52.038;4.640;2023-07-29T13:36:09;2.15;;;0.82;;
67456;SDS011;54319;52.038;4.640;2023-07-29T13:38:36;1.13;;;1.02;;
67456;SDS011;54319;52.038;4.640;2023-07-29T13:41:02;2.17;;;1.20;;
67456;SDS011;54319;52.038;4.640;2023-07-29T13:43:29;1.35;;;1.00;;
67456;SDS011;54319;52.038;4.640;2023-07-29T13:45:56;2.30;;;1.17;;
67456;SDS011;54319;52.038;4.640;2023-07-29T13:48:23;1.35;;;1.00;;
67456;SDS011;54319;52.038;4.640;2023-07-29T13:50:51;4.38;;;1.08;;
67456;SDS011;54319;52.038;4.640;2023-07-29T13:53:18;2.60;;;1.27;;
67456;SDS011;54319;52.038;4.640;2023-07-29T13:55:44;4.20;;;1.10;;
67456;SDS011;54319;52.038;4.640;2023-07-29T13:58:11;3.28;;;1.13;;
67456;SDS011;54319;52.038;4.640;2023-07-29T14:00:38;2.25;;;0.85;;
67456;SDS011;54319;52.038;4.640;2023-07-29T14:03:04;1.20;;;0.98;;
67456;SDS011;54319;52.038;4.640;2023-07-29T14:05:31;1.05;;;0.85;;
67456;SDS011;54319;52.038;4.640;2023-07-29T14:07:59;2.22;;;0.88;;
67456;SDS011;54319;52.038;4.640;2023-07-29T14:10:25;2.92;;;1.10;;
67456;SDS011;54319;52.038;4.640;2023-07-29T14:12:52;1.70;;;1.02;;
67456;SDS011;54319;52.038;4.640;2023-07-29T14:15:19;2.70;;;1.00;;
67456;SDS011;54319;52.038;4.640;2023-07-29T14:17:45;2.17;;;0.88;;
67456;SDS011;54319;52.038;4.640;2023-07-29T14:20:12;4.38;;;0.93;;
67456;SDS011;54319;52.038;4.640;2023-07-29T14:22:39;3.42;;;1.30;;
67456;SDS011;54319;52.038;4.640;2023-07-29T14:25:07;2.28;;;1.08;;
67456;SDS011;54319;52.038;4.640;2023-07-29T14:27:36;5.03;;;1.60;;
67456;SDS011;54319;52.038;4.640;2023-07-29T14:30:03;1.20;;;0.75;;
67456;SDS011;54319;52.038;4.640;2023-07-29T14:32:30;5.60;;;1.17;;
67456;SDS011;54319;52.038;4.640;2023-07-29T14:34:57;1.88;;;0.88;;
67456;SDS011;54319;52.038;4.640;2023-07-29T14:37:23;1.70;;;0.95;;
67456;SDS011;54319;52.038;4.640;2023-07-29T14:39:50;1.77;;;1.02;;
67456;SDS011;54319;52.038;4.640;2023-07-29T14:42:18;2.72;;;1.15;;
67456;SDS011;54319;52.038;4.640;2023-07-29T14:44:44;2.88;;;1.10;;
67456;SDS011;54319;52.038;4.640;2023-07-29T14:47:11;1.17;;;0.90;;
67456;SDS011;54319;52.038;4.640;2023-07-29T14:49:38;1.83;;;1.00;;
67456;SDS011;54319;52.038;4.640;2023-07-29T14:52:05;3.97;;;1.20;;
67456;SDS011;54319;52.038;4.640;2023-07-29T14:54:32;2.45;;;1.27;;
67456;SDS011;54319;52.038;4.640;2023-07-29T14:56:59;2.35;;;1.10;;
67456;SDS011;54319;52.038;4.640;2023-07-29T14:59:27;2.92;;;1.20;;
67456;SDS011;54319;52.038;4.640;2023-07-29T15:01:54;3.22;;;1.30;;
67456;SDS011;54319;52.038;4.640;2023-07-29T15:04:20;2.25;;;1.27;;
67456;SDS011;54319;52.038;4.640;2023-07-29T15:06:50;3.65;;;1.20;;
67456;SDS011;54319;52.038;4.640;2023-07-29T15:09:19;3.72;;;1.20;;
67456;SDS011;54319;52.038;4.640;2023-07-29T15:11:46;2.33;;;1.10;;
67456;SDS011;54319;52.038;4.640;2023-07-29T15:14:13;2.10;;;1.02;;
67456;SDS011;54319;52.038;4.640;2023-07-29T15:16:41;3.10;;;1.13;;
67456;SDS011;54319;52.038;4.640;2023-07-29T15:19:07;3.80;;;1.20;;
67456;SDS011;54319;52.038;4.640;2023-07-29T15:21:34;1.80;;;1.08;;